sensor_id;sensor_type;location;lat;lon;timestamp;P1;durP1;ratioP1;P2;durP2;ratioP2
4980;SDS011;2507;50.392;7.482;2022-10-15T00:00:46;4.63;;;4.23;;
4980;SDS011;2507;50.392;7.482;2022-10-15T00:03:11;4.33;;;4.10;;
4980;SDS011;2507;50.392;7.482;2022-10-15T00:05:37;3.90;;;3.70;;
4980;SDS011;2507;50.392;7.482;2022-10-15T00:08:04;4.67;;;4.27;;
4980;SDS011;2507;50.392;7.482;2022-10-15T00:10:31;3.97;;;3.67;;
4980;SDS011;2507;50.392;7.482;2022-10-15T00:12:57;7.37;;;4.90;;
4980;SDS011;2507;50.392;7.482;2022-10-15T00:15:22;4.50;;;4.20;;
4980;SDS011;2507;50.392;7.482;2022-10-15T00:17:47;4.03;;;3.73;;
4980;SDS011;2507;50.392;7.482;2022-10-15T00:20:13;4.30;;;3.97;;
4980;SDS011;2507;50.392;7.482;2022-10-15T00:22:38;4.60;;;4.00;;
4980;SDS011;2507;50.392;7.482;2022-10-15T00:25:04;3.90;;;3.70;;
4980;SDS011;2507;50.392;7.482;2022-10-15T00:27:30;4.37;;;4.07;;
4980;SDS011;2507;50.392;7.482;2022-10-15T00:29:55;4.63;;;4.30;;
4980;SDS011;2507;50.392;7.482;2022-10-15T00:32:20;5.13;;;4.70;;
4980;SDS011;2507;50.392;7.482;2022-10-15T00:34:46;4.90;;;4.40;;
4980;SDS011;2507;50.392;7.482;2022-10-15T00:37:11;5.20;;;4.40;;
4980;SDS011;2507;50.392;7.482;2022-10-15T00:39:36;4.30;;;4.10;;
4980;SDS011;2507;50.392;7.482;2022-10-15T00:42:02;4.90;;;4.50;;
4980;SDS011;2507;50.392;7.482;2022-10-15T00:50:14;4.20;;;3.90;;
4980;SDS011;2507;50.392;7.482;2022-10-15T00:57:49;4.30;;;4.00;;
4980;SDS011;2507;50.392;7.482;2022-10-15T01:00:15;4.20;;;3.90;;
4980;SDS011;2507;50.392;7.482;2022-10-15T01:02:42;3.73;;;3.50;;
4980;SDS011;2507;50.392;7.482;2022-10-15T01:05:09;4.60;;;4.20;;
4980;SDS011;2507;50.392;7.482;2022-10-15T01:07:35;4.40;;;4.10;;
4980;SDS011;2507;50.392;7.482;2022-10-15T01:10:04;4.47;;;4.17;;
4980;SDS011;2507;50.392;7.482;2022-10-15T01:12:35;5.27;;;4.87;;
4980;SDS011;2507;50.392;7.482;2022-10-15T01:15:34;4.30;;;4.10;;
4980;SDS011;2507;50.392;7.482;2022-10-15T01:18:07;5.53;;;5.07;;
4980;SDS011;2507;50.392;7.482;2022-10-15T01:31:25;4.60;;;4.20;;
4980;SDS011;2507;50.392;7.482;2022-10-15T01:34:08;6.03;;;5.43;;
4980;SDS011;2507;50.392;7.482;2022-10-15T01:36:49;4.90;;;4.60;;
4980;SDS011;2507;50.392;7.482;2022-10-15T01:39:20;4.03;;;3.73;;
4980;SDS011;2507;50.392;7.482;2022-10-15T01:41:53;2.83;;;2.57;;
4980;SDS011;2507;50.392;7.482;2022-10-15T01:44:26;3.67;;;3.13;;
4980;SDS011;2507;50.392;7.482;2022-10-15T01:47:02;3.03;;;2.90;;
4980;SDS011;2507;50.392;7.482;2022-10-15T01:49:32;3.10;;;2.90;;
4980;SDS011;2507;50.392;7.482;2022-10-15T01:52:04;3.43;;;3.23;;
4980;SDS011;2507;50.392;7.482;2022-10-15T01:54:33;3.93;;;3.20;;
4980;SDS011;2507;50.392;7.482;2022-10-15T01:57:00;3.20;;;3.10;;
4980;SDS011;2507;50.392;7.482;2022-10-15T01:59:28;2.43;;;2.33;;
4980;SDS011;2507;50.392;7.482;2022-10-15T02:01:56;3.53;;;2.50;;
4980;SDS011;2507;50.392;7.482;2022-10-15T02:04:26;2.50;;;2.30;;
4980;SDS011;2507;50.392;7.482;2022-10-15T02:06:59;2.40;;;2.30;;
4980;SDS011;2507;50.392;7.482;2022-10-15T02:20:27;3.27;;;3.07;;
4980;SDS011;2507;50.392;7.482;2022-10-15T02:23:01;4.70;;;3.87;;
4980;SDS011;2507;50.392;7.482;2022-10-15T02:25:31;9.03;;;5.33;;
4980;SDS011;2507;50.392;7.482;2022-10-15T02:27:59;4.50;;;4.20;;
4980;SDS011;2507;50.392;7.482;2022-10-15T02:30:27;4.67;;;4.27;;
4980;SDS011;2507;50.392;7.482;2022-10-15T02:32:55;5.93;;;4.10;;
4980;SDS011;2507;50.392;7.482;2022-10-15T02:35:22;4.17;;;3.80;;
4980;SDS011;2507;50.392;7.482;2022-10-15T02:37:49;4.40;;;4.00;;
4980;SDS011;2507;50.392;7.482;2022-10-15T02:40:18;4.30;;;4.10;;
4980;SDS011;2507;50.392;7.482;2022-10-15T02:42:48;4.23;;;3.93;;
4980;SDS011;2507;50.392;7.482;2022-10-15T02:45:14;3.90;;;3.70;;
4980;SDS011;2507;50.392;7.482;2022-10-15T02:47:40;4.77;;;4.43;;
4980;SDS011;2507;50.392;7.482;2022-10-15T02:50:05;5.20;;;4.70;;
4980;SDS011;2507;50.392;7.482;2022-10-15T02:52:30;6.27;;;5.60;;
4980;SDS011;2507;50.392;7.482;2022-10-15T02:54:55;5.80;;;5.30;;
4980;SDS011;2507;50.392;7.482;2022-10-15T02:57:21;6.63;;;5.93;;
4980;SDS011;2507;50.392;7.482;2022-10-15T02:59:46;7.20;;;6.60;;
4980;SDS011;2507;50.392;7.482;2022-10-15T03:02:11;7.97;;;7.27;;
4980;SDS011;2507;50.392;7.482;2022-10-15T03:04:36;8.90;;;7.60;;
4980;SDS011;2507;50.392;7.482;2022-10-15T03:07:03;8.43;;;7.70;;
4980;SDS011;2507;50.392;7.482;2022-10-15T03:09:28;9.20;;;8.30;;
4980;SDS011;2507;50.392;7.482;2022-10-15T03:11:53;8.73;;;7.87;;
4980;SDS011;2507;50.392;7.482;2022-10-15T03:14:19;9.07;;;8.27;;
4980;SDS011;2507;50.392;7.482;2022-10-15T03:16:44;8.40;;;7.60;;
4980;SDS011;2507;50.392;7.482;2022-10-15T03:19:09;8.23;;;7.50;;
4980;SDS011;2507;50.392;7.482;2022-10-15T03:21:34;7.93;;;7.23;;
4980;SDS011;2507;50.392;7.482;2022-10-15T03:24:00;7.60;;;6.90;;
4980;SDS011;2507;50.392;7.482;2022-10-15T03:26:25;8.63;;;6.87;;
4980;SDS011;2507;50.392;7.482;2022-10-15T03:28:50;6.50;;;6.00;;
4980;SDS011;2507;50.392;7.482;2022-10-15T03:31:15;7.00;;;6.40;;
4980;SDS011;2507;50.392;7.482;2022-10-15T03:33:41;8.70;;;7.67;;
4980;SDS011;2507;50.392;7.482;2022-10-15T03:36:06;8.77;;;7.97;;
4980;SDS011;2507;50.392;7.482;2022-10-15T03:38:32;8.10;;;7.40;;
4980;SDS011;2507;50.392;7.482;2022-10-15T03:40:57;7.57;;;6.90;;
4980;SDS011;2507;50.392;7.482;2022-10-15T03:43:23;7.60;;;6.90;;
4980;SDS011;2507;50.392;7.482;2022-10-15T03:45:49;8.70;;;7.90;;
4980;SDS011;2507;50.392;7.482;2022-10-15T03:48:15;7.80;;;7.03;;
4980;SDS011;2507;50.392;7.482;2022-10-15T03:50:40;7.23;;;6.63;;
4980;SDS011;2507;50.392;7.482;2022-10-15T03:53:06;6.67;;;6.10;;
4980;SDS011;2507;50.392;7.482;2022-10-15T03:55:31;7.13;;;6.47;;
4980;SDS011;2507;50.392;7.482;2022-10-15T03:57:57;8.83;;;8.03;;
4980;SDS011;2507;50.392;7.482;2022-10-15T04:00:22;7.00;;;6.37;;
4980;SDS011;2507;50.392;7.482;2022-10-15T04:02:47;6.87;;;6.27;;
4980;SDS011;2507;50.392;7.482;2022-10-15T04:05:13;7.40;;;6.83;;
4980;SDS011;2507;50.392;7.482;2022-10-15T04:07:38;7.30;;;6.70;;
4980;SDS011;2507;50.392;7.482;2022-10-15T04:10:03;7.87;;;6.93;;
4980;SDS011;2507;50.392;7.482;2022-10-15T04:12:29;7.90;;;7.10;;
4980;SDS011;2507;50.392;7.482;2022-10-15T04:14:54;9.20;;;7.00;;
4980;SDS011;2507;50.392;7.482;2022-10-15T04:17:19;7.87;;;7.17;;
4980;SDS011;2507;50.392;7.482;2022-10-15T04:19:44;8.10;;;7.40;;
4980;SDS011;2507;50.392;7.482;2022-10-15T04:22:10;7.87;;;7.17;;
4980;SDS011;2507;50.392;7.482;2022-10-15T04:24:35;7.97;;;7.17;;
4980;SDS011;2507;50.392;7.482;2022-10-15T04:27:00;7.63;;;6.63;;
4980;SDS011;2507;50.392;7.482;2022-10-15T04:29:26;8.00;;;7.30;;
4980;SDS011;2507;50.392;7.482;2022-10-15T04:31:51;7.53;;;6.93;;
4980;SDS011;2507;50.392;7.482;2022-10-15T04:34:16;7.90;;;7.20;;
4980;SDS011;2507;50.392;7.482;2022-10-15T04:36:42;7.50;;;6.90;;
4980;SDS011;2507;50.392;7.482;2022-10-15T04:39:07;10.40;;;7.90;;
4980;SDS011;2507;50.392;7.482;2022-10-15T04:41:32;8.03;;;7.23;;
4980;SDS011;2507;50.392;7.482;2022-10-15T04:43:57;7.97;;;7.07;;
4980;SDS011;2507;50.392;7.482;2022-10-15T04:46:23;7.87;;;7.17;;
4980;SDS011;2507;50.392;7.482;2022-10-15T04:48:48;7.63;;;6.90;;
4980;SDS011;2507;50.392;7.482;2022-10-15T04:51:15;6.70;;;6.20;;
4980;SDS011;2507;50.392;7.482;2022-10-15T04:53:42;7.73;;;7.13;;
4980;SDS011;2507;50.392;7.482;2022-10-15T04:56:14;8.90;;;8.10;;
4980;SDS011;2507;50.392;7.482;2022-10-15T04:58:42;9.80;;;8.17;;
4980;SDS011;2507;50.392;7.482;2022-10-15T05:01:10;13.30;;;7.50;;
4980;SDS011;2507;50.392;7.482;2022-10-15T05:03:36;8.47;;;7.67;;
4980;SDS011;2507;50.392;7.482;2022-10-15T05:06:04;9.20;;;8.30;;
4980;SDS011;2507;50.392;7.482;2022-10-15T05:08:34;11.10;;;8.10;;
4980;SDS011;2507;50.392;7.482;2022-10-15T05:11:01;11.13;;;8.33;;
4980;SDS011;2507;50.392;7.482;2022-10-15T05:13:27;8.60;;;7.80;;
4980;SDS011;2507;50.392;7.482;2022-10-15T05:15:54;8.33;;;7.60;;
4980;SDS011;2507;50.392;7.482;2022-10-15T05:18:20;9.40;;;7.90;;
4980;SDS011;2507;50.392;7.482;2022-10-15T05:20:45;8.60;;;7.80;;
4980;SDS011;2507;50.392;7.482;2022-10-15T05:23:10;7.37;;;6.77;;
4980;SDS011;2507;50.392;7.482;2022-10-15T05:25:35;7.40;;;6.80;;
4980;SDS011;2507;50.392;7.482;2022-10-15T05:28:01;7.90;;;7.23;;
4980;SDS011;2507;50.392;7.482;2022-10-15T05:30:26;4.20;;;3.90;;
4980;SDS011;2507;50.392;7.482;2022-10-15T05:32:52;3.63;;;3.43;;
4980;SDS011;2507;50.392;7.482;2022-10-15T05:35:18;4.10;;;3.90;;
4980;SDS011;2507;50.392;7.482;2022-10-15T05:37:43;3.90;;;3.70;;
4980;SDS011;2507;50.392;7.482;2022-10-15T05:40:09;4.30;;;4.00;;
4980;SDS011;2507;50.392;7.482;2022-10-15T05:42:35;4.53;;;4.23;;
4980;SDS011;2507;50.392;7.482;2022-10-15T05:45:00;4.13;;;3.83;;
4980;SDS011;2507;50.392;7.482;2022-10-15T05:47:25;3.47;;;3.27;;
4980;SDS011;2507;50.392;7.482;2022-10-15T05:49:50;3.63;;;3.27;;
4980;SDS011;2507;50.392;7.482;2022-10-15T05:52:16;3.97;;;3.60;;
4980;SDS011;2507;50.392;7.482;2022-10-15T05:54:41;3.37;;;3.23;;
4980;SDS011;2507;50.392;7.482;2022-10-15T05:57:06;3.27;;;3.07;;
4980;SDS011;2507;50.392;7.482;2022-10-15T05:59:32;3.30;;;3.10;;
4980;SDS011;2507;50.392;7.482;2022-10-15T06:01:57;4.40;;;4.10;;
4980;SDS011;2507;50.392;7.482;2022-10-15T06:04:22;4.00;;;3.00;;
4980;SDS011;2507;50.392;7.482;2022-10-15T06:06:48;4.97;;;4.57;;
4980;SDS011;2507;50.392;7.482;2022-10-15T06:09:13;5.50;;;5.10;;
4980;SDS011;2507;50.392;7.482;2022-10-15T06:11:38;4.87;;;4.57;;
4980;SDS011;2507;50.392;7.482;2022-10-15T06:14:04;4.80;;;4.40;;
4980;SDS011;2507;50.392;7.482;2022-10-15T06:16:29;5.70;;;5.20;;
4980;SDS011;2507;50.392;7.482;2022-10-15T06:18:54;7.10;;;6.60;;
4980;SDS011;2507;50.392;7.482;2022-10-15T06:21:19;8.50;;;7.17;;
4980;SDS011;2507;50.392;7.482;2022-10-15T06:23:45;7.40;;;6.80;;
4980;SDS011;2507;50.392;7.482;2022-10-15T06:26:11;8.70;;;7.50;;
4980;SDS011;2507;50.392;7.482;2022-10-15T06:28:36;8.03;;;7.23;;
4980;SDS011;2507;50.392;7.482;2022-10-15T06:31:03;8.87;;;7.97;;
4980;SDS011;2507;50.392;7.482;2022-10-15T06:33:29;9.60;;;8.70;;
4980;SDS011;2507;50.392;7.482;2022-10-15T06:35:59;9.87;;;8.90;;
4980;SDS011;2507;50.392;7.482;2022-10-15T06:38:34;9.17;;;8.33;;
4980;SDS011;2507;50.392;7.482;2022-10-15T06:41:02;9.27;;;8.47;;
4980;SDS011;2507;50.392;7.482;2022-10-15T06:43:28;11.40;;;8.33;;
4980;SDS011;2507;50.392;7.482;2022-10-15T06:45:54;6.77;;;6.03;;
4980;SDS011;2507;50.392;7.482;2022-10-15T06:48:19;3.70;;;3.37;;
4980;SDS011;2507;50.392;7.482;2022-10-15T06:50:44;2.93;;;2.83;;
4980;SDS011;2507;50.392;7.482;2022-10-15T06:53:09;2.37;;;2.27;;
4980;SDS011;2507;50.392;7.482;2022-10-15T06:55:35;3.27;;;2.27;;
4980;SDS011;2507;50.392;7.482;2022-10-15T06:58:00;2.53;;;2.33;;
4980;SDS011;2507;50.392;7.482;2022-10-15T07:00:26;2.70;;;2.60;;
4980;SDS011;2507;50.392;7.482;2022-10-15T07:02:51;1.70;;;1.60;;
4980;SDS011;2507;50.392;7.482;2022-10-15T07:05:17;2.80;;;2.70;;
4980;SDS011;2507;50.392;7.482;2022-10-15T07:07:52;3.70;;;3.40;;
4980;SDS011;2507;50.392;7.482;2022-10-15T07:10:19;7.30;;;5.43;;
4980;SDS011;2507;50.392;7.482;2022-10-15T07:12:45;8.40;;;4.90;;
4980;SDS011;2507;50.392;7.482;2022-10-15T07:15:10;7.17;;;4.67;;
4980;SDS011;2507;50.392;7.482;2022-10-15T07:17:35;6.53;;;5.33;;
4980;SDS011;2507;50.392;7.482;2022-10-15T07:20:02;3.20;;;3.00;;
4980;SDS011;2507;50.392;7.482;2022-10-15T07:22:28;6.60;;;5.93;;
4980;SDS011;2507;50.392;7.482;2022-10-15T07:24:53;7.33;;;4.70;;
4980;SDS011;2507;50.392;7.482;2022-10-15T07:27:18;2.67;;;2.57;;
4980;SDS011;2507;50.392;7.482;2022-10-15T07:29:44;2.27;;;2.17;;
4980;SDS011;2507;50.392;7.482;2022-10-15T07:32:09;1.83;;;1.73;;
4980;SDS011;2507;50.392;7.482;2022-10-15T07:34:35;3.27;;;3.07;;
4980;SDS011;2507;50.392;7.482;2022-10-15T07:37:00;2.20;;;2.10;;
4980;SDS011;2507;50.392;7.482;2022-10-15T07:39:25;3.23;;;3.10;;
4980;SDS011;2507;50.392;7.482;2022-10-15T07:41:51;3.10;;;2.80;;
4980;SDS011;2507;50.392;7.482;2022-10-15T07:44:16;2.43;;;2.33;;
4980;SDS011;2507;50.392;7.482;2022-10-15T07:46:41;2.47;;;2.37;;
4980;SDS011;2507;50.392;7.482;2022-10-15T07:49:06;2.27;;;2.17;;
4980;SDS011;2507;50.392;7.482;2022-10-15T07:51:33;3.47;;;3.17;;
4980;SDS011;2507;50.392;7.482;2022-10-15T07:53:58;3.77;;;3.47;;
4980;SDS011;2507;50.392;7.482;2022-10-15T07:56:23;2.47;;;2.27;;
4980;SDS011;2507;50.392;7.482;2022-10-15T07:58:49;1.60;;;1.60;;
4980;SDS011;2507;50.392;7.482;2022-10-15T08:01:17;1.40;;;1.40;;
4980;SDS011;2507;50.392;7.482;2022-10-15T08:03:44;1.60;;;1.60;;
4980;SDS011;2507;50.392;7.482;2022-10-15T08:06:09;1.30;;;1.30;;
4980;SDS011;2507;50.392;7.482;2022-10-15T08:08:35;1.27;;;1.17;;
4980;SDS011;2507;50.392;7.482;2022-10-15T08:11:08;2.60;;;2.40;;
4980;SDS011;2507;50.392;7.482;2022-10-15T08:13:38;2.33;;;2.23;;
4980;SDS011;2507;50.392;7.482;2022-10-15T08:16:06;3.10;;;2.90;;
4980;SDS011;2507;50.392;7.482;2022-10-15T08:18:36;2.07;;;1.80;;
4980;SDS011;2507;50.392;7.482;2022-10-15T08:21:02;2.10;;;1.70;;
4980;SDS011;2507;50.392;7.482;2022-10-15T08:23:30;1.27;;;1.00;;
4980;SDS011;2507;50.392;7.482;2022-10-15T08:25:56;2.83;;;1.63;;
4980;SDS011;2507;50.392;7.482;2022-10-15T08:28:23;2.03;;;1.17;;
4980;SDS011;2507;50.392;7.482;2022-10-15T08:30:48;1.40;;;1.30;;
4980;SDS011;2507;50.392;7.482;2022-10-15T08:33:13;1.00;;;1.00;;
4980;SDS011;2507;50.392;7.482;2022-10-15T08:35:40;3.10;;;2.90;;
4980;SDS011;2507;50.392;7.482;2022-10-15T08:38:11;2.00;;;1.70;;
4980;SDS011;2507;50.392;7.482;2022-10-15T08:40:36;1.30;;;1.20;;
4980;SDS011;2507;50.392;7.482;2022-10-15T08:43:02;1.17;;;0.77;;
4980;SDS011;2507;50.392;7.482;2022-10-15T08:45:38;1.13;;;1.13;;
4980;SDS011;2507;50.392;7.482;2022-10-15T08:48:13;3.60;;;0.73;;
4980;SDS011;2507;50.392;7.482;2022-10-15T08:51:29;0.80;;;0.80;;
4980;SDS011;2507;50.392;7.482;2022-10-15T08:53:51;0.97;;;0.80;;
4980;SDS011;2507;50.392;7.482;2022-10-15T08:56:23;5.20;;;1.50;;
4980;SDS011;2507;50.392;7.482;2022-10-15T09:04:04;1.33;;;0.50;;
4980;SDS011;2507;50.392;7.482;2022-10-15T09:06:38;1.10;;;0.80;;
4980;SDS011;2507;50.392;7.482;2022-10-15T09:11:53;0.50;;;0.40;;
4980;SDS011;2507;50.392;7.482;2022-10-15T09:14:28;1.33;;;0.70;;
4980;SDS011;2507;50.392;7.482;2022-10-15T09:16:57;4.40;;;1.40;;
4980;SDS011;2507;50.392;7.482;2022-10-15T09:19:29;0.70;;;0.60;;
4980;SDS011;2507;50.392;7.482;2022-10-15T09:21:59;1.67;;;0.50;;
4980;SDS011;2507;50.392;7.482;2022-10-15T09:24:27;1.90;;;0.60;;
4980;SDS011;2507;50.392;7.482;2022-10-15T09:27:02;1.50;;;1.40;;
4980;SDS011;2507;50.392;7.482;2022-10-15T09:29:43;2.07;;;1.97;;
4980;SDS011;2507;50.392;7.482;2022-10-15T09:35:30;0.80;;;0.70;;
4980;SDS011;2507;50.392;7.482;2022-10-15T09:41:19;0.90;;;0.90;;
4980;SDS011;2507;50.392;7.482;2022-10-15T09:43:56;0.80;;;0.50;;
4980;SDS011;2507;50.392;7.482;2022-10-15T09:46:23;1.80;;;1.70;;
4980;SDS011;2507;50.392;7.482;2022-10-15T09:51:52;1.13;;;1.13;;
4980;SDS011;2507;50.392;7.482;2022-10-15T09:57:10;0.83;;;0.83;;
4980;SDS011;2507;50.392;7.482;2022-10-15T09:59:37;1.40;;;0.87;;
4980;SDS011;2507;50.392;7.482;2022-10-15T10:04:48;1.47;;;1.37;;
4980;SDS011;2507;50.392;7.482;2022-10-15T10:07:26;1.10;;;1.10;;
4980;SDS011;2507;50.392;7.482;2022-10-15T10:09:56;1.20;;;1.10;;
4980;SDS011;2507;50.392;7.482;2022-10-15T10:12:27;3.90;;;1.00;;
4980;SDS011;2507;50.392;7.482;2022-10-15T10:14:57;7.60;;;1.70;;
4980;SDS011;2507;50.392;7.482;2022-10-15T10:17:26;1.43;;;0.70;;
4980;SDS011;2507;50.392;7.482;2022-10-15T10:22:43;0.80;;;0.80;;
4980;SDS011;2507;50.392;7.482;2022-10-15T10:25:30;1.97;;;1.10;;
4980;SDS011;2507;50.392;7.482;2022-10-15T10:28:02;1.93;;;1.83;;
4980;SDS011;2507;50.392;7.482;2022-10-15T10:30:41;0.60;;;0.40;;
4980;SDS011;2507;50.392;7.482;2022-10-15T10:33:13;1.60;;;0.70;;
4980;SDS011;2507;50.392;7.482;2022-10-15T10:35:46;0.50;;;0.50;;
4980;SDS011;2507;50.392;7.482;2022-10-15T10:38:23;0.50;;;0.50;;
4980;SDS011;2507;50.392;7.482;2022-10-15T10:40:52;0.50;;;0.40;;
4980;SDS011;2507;50.392;7.482;2022-10-15T10:43:28;1.17;;;1.07;;
4980;SDS011;2507;50.392;7.482;2022-10-15T10:48:23;1.33;;;0.90;;
4980;SDS011;2507;50.392;7.482;2022-10-15T10:51:53;0.80;;;0.50;;
4980;SDS011;2507;50.392;7.482;2022-10-15T11:01:49;0.50;;;0.40;;
4980;SDS011;2507;50.392;7.482;2022-10-15T11:04:26;1.33;;;0.50;;
4980;SDS011;2507;50.392;7.482;2022-10-15T11:17:56;1.23;;;1.13;;
4980;SDS011;2507;50.392;7.482;2022-10-15T11:23:14;1.57;;;0.60;;
4980;SDS011;2507;50.392;7.482;2022-10-15T11:28:55;1.47;;;0.70;;
4980;SDS011;2507;50.392;7.482;2022-10-15T11:31:36;6.67;;;5.97;;
4980;SDS011;2507;50.392;7.482;2022-10-15T11:34:22;6.40;;;5.80;;
4980;SDS011;2507;50.392;7.482;2022-10-15T11:39:44;1.30;;;1.20;;
4980;SDS011;2507;50.392;7.482;2022-10-15T11:42:18;1.80;;;1.70;;
4980;SDS011;2507;50.392;7.482;2022-10-15T11:47:30;4.50;;;0.80;;
4980;SDS011;2507;50.392;7.482;2022-10-15T11:55:58;0.70;;;0.60;;
4980;SDS011;2507;50.392;7.482;2022-10-15T11:58:32;1.67;;;0.60;;
4980;SDS011;2507;50.392;7.482;2022-10-15T12:01:06;4.43;;;0.57;;
4980;SDS011;2507;50.392;7.482;2022-10-15T12:03:41;0.93;;;0.50;;
4980;SDS011;2507;50.392;7.482;2022-10-15T12:06:15;0.57;;;0.40;;
4980;SDS011;2507;50.392;7.482;2022-10-15T12:08:43;4.60;;;0.57;;
4980;SDS011;2507;50.392;7.482;2022-10-15T12:14:16;1.83;;;0.63;;
4980;SDS011;2507;50.392;7.482;2022-10-15T12:17:03;1.97;;;0.40;;
4980;SDS011;2507;50.392;7.482;2022-10-15T12:19:43;0.50;;;0.40;;
4980;SDS011;2507;50.392;7.482;2022-10-15T12:22:15;1.00;;;0.40;;
4980;SDS011;2507;50.392;7.482;2022-10-15T12:24:56;0.40;;;0.30;;
4980;SDS011;2507;50.392;7.482;2022-10-15T12:27:22;0.50;;;0.47;;
4980;SDS011;2507;50.392;7.482;2022-10-15T12:32:29;0.50;;;0.40;;
4980;SDS011;2507;50.392;7.482;2022-10-15T12:35:06;0.70;;;0.50;;
4980;SDS011;2507;50.392;7.482;2022-10-15T12:37:45;0.90;;;0.50;;
4980;SDS011;2507;50.392;7.482;2022-10-15T12:42:50;1.00;;;0.57;;
4980;SDS011;2507;50.392;7.482;2022-10-15T12:45:20;2.77;;;0.60;;
4980;SDS011;2507;50.392;7.482;2022-10-15T12:47:49;1.10;;;0.90;;
4980;SDS011;2507;50.392;7.482;2022-10-15T12:50:25;0.50;;;0.50;;
4980;SDS011;2507;50.392;7.482;2022-10-15T12:52:55;0.60;;;0.50;;
4980;SDS011;2507;50.392;7.482;2022-10-15T12:55:35;1.03;;;0.93;;
4980;SDS011;2507;50.392;7.482;2022-10-15T13:00:51;0.90;;;0.50;;
4980;SDS011;2507;50.392;7.482;2022-10-15T13:05:44;4.37;;;0.60;;
4980;SDS011;2507;50.392;7.482;2022-10-15T13:08:11;0.50;;;0.33;;
4980;SDS011;2507;50.392;7.482;2022-10-15T13:10:47;1.00;;;0.30;;
4980;SDS011;2507;50.392;7.482;2022-10-15T13:13:16;1.27;;;0.50;;
4980;SDS011;2507;50.392;7.482;2022-10-15T13:16:18;1.80;;;0.90;;
4980;SDS011;2507;50.392;7.482;2022-10-15T13:18:37;0.80;;;0.70;;
4980;SDS011;2507;50.392;7.482;2022-10-15T13:21:05;0.50;;;0.33;;
4980;SDS011;2507;50.392;7.482;2022-10-15T13:23:31;4.50;;;2.00;;
4980;SDS011;2507;50.392;7.482;2022-10-15T13:26:12;0.50;;;0.37;;
4980;SDS011;2507;50.392;7.482;2022-10-15T13:28:38;1.53;;;0.60;;
4980;SDS011;2507;50.392;7.482;2022-10-15T13:31:07;2.07;;;0.87;;
4980;SDS011;2507;50.392;7.482;2022-10-15T13:33:40;1.00;;;0.73;;
4980;SDS011;2507;50.392;7.482;2022-10-15T13:36:07;0.60;;;0.60;;
4980;SDS011;2507;50.392;7.482;2022-10-15T13:38:41;10.60;;;1.50;;
4980;SDS011;2507;50.392;7.482;2022-10-15T13:41:06;0.70;;;0.70;;
4980;SDS011;2507;50.392;7.482;2022-10-15T13:43:32;2.73;;;0.80;;
4980;SDS011;2507;50.392;7.482;2022-10-15T13:45:58;4.33;;;1.73;;
4980;SDS011;2507;50.392;7.482;2022-10-15T13:48:26;1.30;;;0.83;;
4980;SDS011;2507;50.392;7.482;2022-10-15T13:50:54;2.50;;;0.87;;
4980;SDS011;2507;50.392;7.482;2022-10-15T13:53:27;3.27;;;0.80;;
4980;SDS011;2507;50.392;7.482;2022-10-15T13:55:56;1.20;;;1.10;;
4980;SDS011;2507;50.392;7.482;2022-10-15T13:58:24;1.20;;;1.10;;
4980;SDS011;2507;50.392;7.482;2022-10-15T14:00:58;1.37;;;1.10;;
4980;SDS011;2507;50.392;7.482;2022-10-15T14:03:31;1.13;;;0.80;;
4980;SDS011;2507;50.392;7.482;2022-10-15T14:06:13;2.00;;;0.67;;
4980;SDS011;2507;50.392;7.482;2022-10-15T14:08:42;0.90;;;0.80;;
4980;SDS011;2507;50.392;7.482;2022-10-15T14:11:11;2.00;;;1.50;;
4980;SDS011;2507;50.392;7.482;2022-10-15T14:13:44;3.13;;;2.90;;
4980;SDS011;2507;50.392;7.482;2022-10-15T14:18:42;2.20;;;0.67;;
4980;SDS011;2507;50.392;7.482;2022-10-15T14:21:11;3.33;;;1.20;;
4980;SDS011;2507;50.392;7.482;2022-10-15T14:23:38;1.80;;;0.90;;
4980;SDS011;2507;50.392;7.482;2022-10-15T14:26:05;0.60;;;0.50;;
4980;SDS011;2507;50.392;7.482;2022-10-15T14:28:31;1.07;;;0.80;;
4980;SDS011;2507;50.392;7.482;2022-10-15T14:30:59;0.80;;;0.70;;
4980;SDS011;2507;50.392;7.482;2022-10-15T14:38:49;2.10;;;0.70;;
4980;SDS011;2507;50.392;7.482;2022-10-15T14:41:23;0.70;;;0.70;;
4980;SDS011;2507;50.392;7.482;2022-10-15T14:46:43;1.90;;;0.50;;
4980;SDS011;2507;50.392;7.482;2022-10-15T14:49:18;0.70;;;0.47;;
4980;SDS011;2507;50.392;7.482;2022-10-15T14:52:05;1.83;;;0.60;;
4980;SDS011;2507;50.392;7.482;2022-10-15T14:54:37;0.60;;;0.40;;
4980;SDS011;2507;50.392;7.482;2022-10-15T14:57:08;4.13;;;1.07;;
4980;SDS011;2507;50.392;7.482;2022-10-15T14:59:42;0.60;;;0.50;;
4980;SDS011;2507;50.392;7.482;2022-10-15T15:02:09;2.90;;;0.70;;
4980;SDS011;2507;50.392;7.482;2022-10-15T15:04:40;0.80;;;0.40;;
4980;SDS011;2507;50.392;7.482;2022-10-15T15:07:19;0.60;;;0.60;;
4980;SDS011;2507;50.392;7.482;2022-10-15T15:09:48;1.07;;;0.67;;
4980;SDS011;2507;50.392;7.482;2022-10-15T15:12:16;0.70;;;0.60;;
4980;SDS011;2507;50.392;7.482;2022-10-15T15:14:44;0.60;;;0.40;;
4980;SDS011;2507;50.392;7.482;2022-10-15T15:17:14;0.83;;;0.70;;
4980;SDS011;2507;50.392;7.482;2022-10-15T15:19:41;1.80;;;1.70;;
4980;SDS011;2507;50.392;7.482;2022-10-15T15:22:08;3.87;;;3.23;;
4980;SDS011;2507;50.392;7.482;2022-10-15T15:24:37;6.73;;;6.07;;
4980;SDS011;2507;50.392;7.482;2022-10-15T15:27:03;1.70;;;1.60;;
4980;SDS011;2507;50.392;7.482;2022-10-15T15:29:28;1.87;;;1.43;;
4980;SDS011;2507;50.392;7.482;2022-10-15T15:31:53;1.27;;;1.17;;
4980;SDS011;2507;50.392;7.482;2022-10-15T15:34:19;1.20;;;1.20;;
4980;SDS011;2507;50.392;7.482;2022-10-15T15:36:44;0.87;;;0.60;;
4980;SDS011;2507;50.392;7.482;2022-10-15T15:39:09;1.90;;;1.80;;
4980;SDS011;2507;50.392;7.482;2022-10-15T15:41:34;6.20;;;4.80;;
4980;SDS011;2507;50.392;7.482;2022-10-15T15:44:00;3.23;;;2.80;;
4980;SDS011;2507;50.392;7.482;2022-10-15T15:46:25;2.77;;;2.00;;
4980;SDS011;2507;50.392;7.482;2022-10-15T15:48:51;5.63;;;4.10;;
4980;SDS011;2507;50.392;7.482;2022-10-15T15:51:22;3.23;;;2.87;;
4980;SDS011;2507;50.392;7.482;2022-10-15T15:53:50;2.30;;;2.10;;
4980;SDS011;2507;50.392;7.482;2022-10-15T15:56:15;2.03;;;1.93;;
4980;SDS011;2507;50.392;7.482;2022-10-15T15:58:41;1.13;;;1.13;;
4980;SDS011;2507;50.392;7.482;2022-10-15T16:01:06;1.10;;;1.10;;
4980;SDS011;2507;50.392;7.482;2022-10-15T16:03:32;1.00;;;1.00;;
4980;SDS011;2507;50.392;7.482;2022-10-15T16:05:57;0.90;;;0.90;;
4980;SDS011;2507;50.392;7.482;2022-10-15T16:08:22;0.90;;;0.90;;
4980;SDS011;2507;50.392;7.482;2022-10-15T16:10:47;1.10;;;1.10;;
4980;SDS011;2507;50.392;7.482;2022-10-15T16:13:13;1.80;;;1.33;;
4980;SDS011;2507;50.392;7.482;2022-10-15T16:15:38;3.83;;;1.50;;
4980;SDS011;2507;50.392;7.482;2022-10-15T16:18:03;1.30;;;1.30;;
4980;SDS011;2507;50.392;7.482;2022-10-15T16:20:29;0.93;;;0.93;;
4980;SDS011;2507;50.392;7.482;2022-10-15T16:22:54;1.20;;;1.20;;
4980;SDS011;2507;50.392;7.482;2022-10-15T16:25:19;1.10;;;1.10;;
4980;SDS011;2507;50.392;7.482;2022-10-15T16:27:45;1.00;;;1.00;;
4980;SDS011;2507;50.392;7.482;2022-10-15T16:30:15;1.33;;;1.23;;
4980;SDS011;2507;50.392;7.482;2022-10-15T16:32:42;1.50;;;1.50;;
4980;SDS011;2507;50.392;7.482;2022-10-15T16:35:07;1.50;;;1.50;;
4980;SDS011;2507;50.392;7.482;2022-10-15T16:37:33;2.30;;;1.47;;
4980;SDS011;2507;50.392;7.482;2022-10-15T16:39:58;2.53;;;1.77;;
4980;SDS011;2507;50.392;7.482;2022-10-15T16:42:23;1.43;;;1.37;;
4980;SDS011;2507;50.392;7.482;2022-10-15T16:44:48;1.10;;;0.97;;
4980;SDS011;2507;50.392;7.482;2022-10-15T16:47:15;2.40;;;1.10;;
4980;SDS011;2507;50.392;7.482;2022-10-15T16:49:40;1.80;;;1.30;;
4980;SDS011;2507;50.392;7.482;2022-10-15T16:52:06;2.37;;;1.00;;
4980;SDS011;2507;50.392;7.482;2022-10-15T16:54:32;1.43;;;1.20;;
4980;SDS011;2507;50.392;7.482;2022-10-15T16:56:58;4.73;;;4.40;;
4980;SDS011;2507;50.392;7.482;2022-10-15T16:59:23;8.77;;;8.07;;
4980;SDS011;2507;50.392;7.482;2022-10-15T17:01:51;3.33;;;3.23;;
4980;SDS011;2507;50.392;7.482;2022-10-15T17:04:16;5.93;;;5.53;;
4980;SDS011;2507;50.392;7.482;2022-10-15T17:06:41;2.10;;;2.00;;
4980;SDS011;2507;50.392;7.482;2022-10-15T17:09:07;4.50;;;4.20;;
4980;SDS011;2507;50.392;7.482;2022-10-15T17:11:34;1.77;;;1.30;;
4980;SDS011;2507;50.392;7.482;2022-10-15T17:14:03;4.50;;;2.90;;
4980;SDS011;2507;50.392;7.482;2022-10-15T17:16:31;4.20;;;3.90;;
4980;SDS011;2507;50.392;7.482;2022-10-15T17:18:59;4.73;;;3.67;;
4980;SDS011;2507;50.392;7.482;2022-10-15T17:21:25;5.60;;;5.10;;
4980;SDS011;2507;50.392;7.482;2022-10-15T17:23:53;6.00;;;5.40;;